sensor_id;sensor_type;location;lat;lon;timestamp;temperature;humidity
42333;DHT22;27984;51.476;5.702;2022-11-15T00:01:53;8.70;99.90
42333;DHT22;27984;51.476;5.702;2022-11-15T00:04:19;8.70;99.90
42333;DHT22;27984;51.476;5.702;2022-11-15T00:06:47;8.70;99.90
42333;DHT22;27984;51.476;5.702;2022-11-15T00:09:12;8.80;99.90
42333;DHT22;27984;51.476;5.702;2022-11-15T00:11:38;8.80;99.90
42333;DHT22;27984;51.476;5.702;2022-11-15T00:14:03;8.90;99.90
42333;DHT22;27984;51.476;5.702;2022-11-15T00:16:32;8.80;99.90
42333;DHT22;27984;51.476;5.702;2022-11-15T00:18:57;8.90;99.90
42333;DHT22;27984;51.476;5.702;2022-11-15T00:21:23;8.90;99.90
42333;DHT22;27984;51.476;5.702;2022-11-15T00:23:51;8.90;99.90
42333;DHT22;27984;51.476;5.702;2022-11-15T00:26:17;9.00;99.90
42333;DHT22;27984;51.476;5.702;2022-11-15T00:28:43;9.10;99.90
42333;DHT22;27984;51.476;5.702;2022-11-15T00:31:12;9.10;99.90
42333;DHT22;27984;51.476;5.702;2022-11-15T00:33:37;9.10;99.90
42333;DHT22;27984;51.476;5.702;2022-11-15T00:36:05;9.20;99.90
42333;DHT22;27984;51.476;5.702;2022-11-15T00:38:36;9.20;99.90
42333;DHT22;27984;51.476;5.702;2022-11-15T00:41:03;9.20;99.90
42333;DHT22;27984;51.476;5.702;2022-11-15T00:43:32;9.30;99.90
42333;DHT22;27984;51.476;5.702;2022-11-15T00:45:58;9.30;99.90
42333;DHT22;27984;51.476;5.702;2022-11-15T00:48:24;9.30;99.90
42333;DHT22;27984;51.476;5.702;2022-11-15T00:50:50;9.30;99.90
42333;DHT22;27984;51.476;5.702;2022-11-15T00:53:16;9.30;99.90
42333;DHT22;27984;51.476;5.702;2022-11-15T00:55:43;9.40;99.90
42333;DHT22;27984;51.476;5.702;2022-11-15T00:58:09;9.40;99.90
42333;DHT22;27984;51.476;5.702;2022-11-15T01:00:34;9.40;99.90
42333;DHT22;27984;51.476;5.702;2022-11-15T01:03:00;9.40;99.90
42333;DHT22;27984;51.476;5.702;2022-11-15T01:05:27;9.40;99.90
42333;DHT22;27984;51.476;5.702;2022-11-15T01:07:54;9.50;99.90
42333;DHT22;27984;51.476;5.702;2022-11-15T01:10:19;9.50;99.90
42333;DHT22;27984;51.476;5.702;2022-11-15T01:12:48;9.50;99.90
42333;DHT22;27984;51.476;5.702;2022-11-15T01:15:17;9.40;99.90
42333;DHT22;27984;51.476;5.702;2022-11-15T01:17:42;9.50;99.90
42333;DHT22;27984;51.476;5.702;2022-11-15T01:20:08;9.50;99.90
42333;DHT22;27984;51.476;5.702;2022-11-15T01:22:34;9.50;99.90
42333;DHT22;27984;51.476;5.702;2022-11-15T01:25:03;9.50;99.90
42333;DHT22;27984;51.476;5.702;2022-11-15T01:27:28;9.50;99.90
42333;DHT22;27984;51.476;5.702;2022-11-15T01:29:57;9.50;99.90
42333;DHT22;27984;51.476;5.702;2022-11-15T01:32:22;9.50;99.90
42333;DHT22;27984;51.476;5.702;2022-11-15T01:34:48;9.50;99.90
42333;DHT22;27984;51.476;5.702;2022-11-15T01:37:14;9.60;99.90
42333;DHT22;27984;51.476;5.702;2022-11-15T01:39:39;9.50;99.90
42333;DHT22;27984;51.476;5.702;2022-11-15T01:42:05;9.60;99.90
42333;DHT22;27984;51.476;5.702;2022-11-15T01:46:57;9.60;99.90
42333;DHT22;27984;51.476;5.702;2022-11-15T01:49:27;9.70;99.90
42333;DHT22;27984;51.476;5.702;2022-11-15T01:51:54;9.70;99.90
42333;DHT22;27984;51.476;5.702;2022-11-15T01:54:24;9.70;99.90
42333;DHT22;27984;51.476;5.702;2022-11-15T01:57:05;9.70;99.90
42333;DHT22;27984;51.476;5.702;2022-11-15T01:59:32;9.70;99.90
42333;DHT22;27984;51.476;5.702;2022-11-15T02:01:58;9.80;99.90
42333;DHT22;27984;51.476;5.702;2022-11-15T02:04:40;9.80;99.90
42333;DHT22;27984;51.476;5.702;2022-11-15T02:07:09;9.80;99.90
42333;DHT22;27984;51.476;5.702;2022-11-15T02:09:38;9.80;99.90
42333;DHT22;27984;51.476;5.702;2022-11-15T02:12:05;9.80;99.90
42333;DHT22;27984;51.476;5.702;2022-11-15T02:14:33;9.80;99.90
42333;DHT22;27984;51.476;5.702;2022-11-15T02:31:32;10.00;99.90
42333;DHT22;27984;51.476;5.702;2022-11-15T02:34:35;10.10;99.90
42333;DHT22;27984;51.476;5.702;2022-11-15T02:40:21;10.20;99.90
42333;DHT22;27984;51.476;5.702;2022-11-15T02:43:07;10.30;99.90
42333;DHT22;27984;51.476;5.702;2022-11-15T02:46:04;10.30;99.90
42333;DHT22;27984;51.476;5.702;2022-11-15T02:48:33;10.30;99.90
42333;DHT22;27984;51.476;5.702;2022-11-15T02:50:59;10.40;99.90
42333;DHT22;27984;51.476;5.702;2022-11-15T02:53:26;10.40;99.90
42333;DHT22;27984;51.476;5.702;2022-11-15T02:55:53;10.50;99.90
42333;DHT22;27984;51.476;5.702;2022-11-15T02:58:37;10.40;99.90
42333;DHT22;27984;51.476;5.702;2022-11-15T03:06:49;10.50;99.90
42333;DHT22;27984;51.476;5.702;2022-11-15T03:10:08;10.50;99.90
42333;DHT22;27984;51.476;5.702;2022-11-15T03:12:43;10.50;99.90
42333;DHT22;27984;51.476;5.702;2022-11-15T03:15:17;10.50;99.90
42333;DHT22;27984;51.476;5.702;2022-11-15T03:17:58;10.60;99.90
42333;DHT22;27984;51.476;5.702;2022-11-15T03:20:26;10.60;99.90
42333;DHT22;27984;51.476;5.702;2022-11-15T03:22:56;10.60;99.90
42333;DHT22;27984;51.476;5.702;2022-11-15T03:25:26;10.60;99.90
42333;DHT22;27984;51.476;5.702;2022-11-15T03:27:55;10.60;99.90
42333;DHT22;27984;51.476;5.702;2022-11-15T03:30:22;10.70;99.90
42333;DHT22;27984;51.476;5.702;2022-11-15T03:32:56;10.70;99.90
42333;DHT22;27984;51.476;5.702;2022-11-15T03:35:30;10.70;99.90
42333;DHT22;27984;51.476;5.702;2022-11-15T03:40:53;10.70;99.90
42333;DHT22;27984;51.476;5.702;2022-11-15T03:43:52;10.70;99.90
42333;DHT22;27984;51.476;5.702;2022-11-15T03:47:03;10.70;99.90
42333;DHT22;27984;51.476;5.702;2022-11-15T03:49:33;10.70;99.90
42333;DHT22;27984;51.476;5.702;2022-11-15T03:52:00;10.70;99.90
42333;DHT22;27984;51.476;5.702;2022-11-15T03:54:27;10.70;99.90
42333;DHT22;27984;51.476;5.702;2022-11-15T03:56:55;10.80;99.90
42333;DHT22;27984;51.476;5.702;2022-11-15T03:59:20;10.80;99.90
42333;DHT22;27984;51.476;5.702;2022-11-15T04:01:46;10.80;99.90
42333;DHT22;27984;51.476;5.702;2022-11-15T04:04:11;10.80;99.90
42333;DHT22;27984;51.476;5.702;2022-11-15T04:06:40;10.80;99.90
42333;DHT22;27984;51.476;5.702;2022-11-15T04:09:05;10.80;99.90
42333;DHT22;27984;51.476;5.702;2022-11-15T04:11:31;10.80;99.90
42333;DHT22;27984;51.476;5.702;2022-11-15T04:13:56;10.80;99.90
42333;DHT22;27984;51.476;5.702;2022-11-15T04:16:24;10.80;99.90
42333;DHT22;27984;51.476;5.702;2022-11-15T04:18:54;10.80;99.90
42333;DHT22;27984;51.476;5.702;2022-11-15T04:21:39;10.90;99.90
42333;DHT22;27984;51.476;5.702;2022-11-15T04:24:23;10.80;99.90
42333;DHT22;27984;51.476;5.702;2022-11-15T04:26:48;10.80;99.90
42333;DHT22;27984;51.476;5.702;2022-11-15T04:29:14;10.80;99.90
42333;DHT22;27984;51.476;5.702;2022-11-15T04:31:58;10.90;99.90
42333;DHT22;27984;51.476;5.702;2022-11-15T04:34:24;10.90;99.90
42333;DHT22;27984;51.476;5.702;2022-11-15T04:36:52;10.90;99.90
42333;DHT22;27984;51.476;5.702;2022-11-15T04:39:36;10.90;99.90
42333;DHT22;27984;51.476;5.702;2022-11-15T04:42:02;10.90;99.90
42333;DHT22;27984;51.476;5.702;2022-11-15T04:44:28;10.90;99.90
42333;DHT22;27984;51.476;5.702;2022-11-15T04:46:53;10.90;99.90
42333;DHT22;27984;51.476;5.702;2022-11-15T04:49:19;10.90;99.90
42333;DHT22;27984;51.476;5.702;2022-11-15T04:51:47;10.90;99.90
42333;DHT22;27984;51.476;5.702;2022-11-15T04:54:13;10.90;99.90
42333;DHT22;27984;51.476;5.702;2022-11-15T04:56:38;10.90;99.90
42333;DHT22;27984;51.476;5.702;2022-11-15T04:59:04;10.90;99.90
42333;DHT22;27984;51.476;5.702;2022-11-15T05:01:30;10.90;99.90
42333;DHT22;27984;51.476;5.702;2022-11-15T05:03:55;10.90;99.90
42333;DHT22;27984;51.476;5.702;2022-11-15T05:06:39;10.90;99.90
42333;DHT22;27984;51.476;5.702;2022-11-15T05:09:07;10.90;99.90
42333;DHT22;27984;51.476;5.702;2022-11-15T05:11:33;10.90;99.90
42333;DHT22;27984;51.476;5.702;2022-11-15T05:13:58;10.90;99.90
42333;DHT22;27984;51.476;5.702;2022-11-15T05:16:24;10.90;99.90
42333;DHT22;27984;51.476;5.702;2022-11-15T05:18:53;10.90;99.90
42333;DHT22;27984;51.476;5.702;2022-11-15T05:21:19;10.90;99.90
42333;DHT22;27984;51.476;5.702;2022-11-15T05:23:45;10.90;99.90
42333;DHT22;27984;51.476;5.702;2022-11-15T05:26:11;10.90;99.90
42333;DHT22;27984;51.476;5.702;2022-11-15T05:28:37;10.90;99.90
42333;DHT22;27984;51.476;5.702;2022-11-15T05:31:06;10.90;99.90
42333;DHT22;27984;51.476;5.702;2022-11-15T05:33:32;10.90;99.90
42333;DHT22;27984;51.476;5.702;2022-11-15T05:38:33;10.90;99.90
42333;DHT22;27984;51.476;5.702;2022-11-15T05:41:00;10.90;99.90
42333;DHT22;27984;51.476;5.702;2022-11-15T05:43:29;11.00;99.90
42333;DHT22;27984;51.476;5.702;2022-11-15T05:45:57;10.90;99.90
42333;DHT22;27984;51.476;5.702;2022-11-15T05:48:23;10.90;99.90
42333;DHT22;27984;51.476;5.702;2022-11-15T05:50:49;10.90;99.90
42333;DHT22;27984;51.476;5.702;2022-11-15T05:53:16;10.90;99.90
42333;DHT22;27984;51.476;5.702;2022-11-15T05:55:44;10.90;99.90
42333;DHT22;27984;51.476;5.702;2022-11-15T05:58:10;10.90;99.90
42333;DHT22;27984;51.476;5.702;2022-11-15T06:00:35;11.00;99.90
42333;DHT22;27984;51.476;5.702;2022-11-15T06:03:01;11.00;99.90
42333;DHT22;27984;51.476;5.702;2022-11-15T06:05:29;11.00;99.90
42333;DHT22;27984;51.476;5.702;2022-11-15T06:07:58;11.00;99.90
42333;DHT22;27984;51.476;5.702;2022-11-15T06:10:24;10.90;99.90
42333;DHT22;27984;51.476;5.702;2022-11-15T06:13:02;11.00;99.90
42333;DHT22;27984;51.476;5.702;2022-11-15T06:15:28;11.00;99.90
42333;DHT22;27984;51.476;5.702;2022-11-15T06:17:57;11.00;99.90
42333;DHT22;27984;51.476;5.702;2022-11-15T06:20:26;10.90;99.90
42333;DHT22;27984;51.476;5.702;2022-11-15T06:23:03;11.00;99.90
42333;DHT22;27984;51.476;5.702;2022-11-15T06:25:30;11.00;99.90
42333;DHT22;27984;51.476;5.702;2022-11-15T06:27:57;11.00;99.90
42333;DHT22;27984;51.476;5.702;2022-11-15T06:30:24;11.00;99.90
42333;DHT22;27984;51.476;5.702;2022-11-15T06:32:50;11.00;99.90
42333;DHT22;27984;51.476;5.702;2022-11-15T06:35:17;11.00;99.90
42333;DHT22;27984;51.476;5.702;2022-11-15T06:37:45;11.00;99.90
42333;DHT22;27984;51.476;5.702;2022-11-15T06:40:11;11.00;99.90
42333;DHT22;27984;51.476;5.702;2022-11-15T06:42:39;11.00;99.90
42333;DHT22;27984;51.476;5.702;2022-11-15T06:45:05;11.00;99.90
42333;DHT22;27984;51.476;5.702;2022-11-15T06:47:33;11.00;99.90
42333;DHT22;27984;51.476;5.702;2022-11-15T06:49:59;11.00;99.90
42333;DHT22;27984;51.476;5.702;2022-11-15T06:52:24;10.90;99.90
42333;DHT22;27984;51.476;5.702;2022-11-15T06:54:50;10.90;99.90
42333;DHT22;27984;51.476;5.702;2022-11-15T06:57:15;10.90;99.90
42333;DHT22;27984;51.476;5.702;2022-11-15T06:59:44;10.90;99.90
42333;DHT22;27984;51.476;5.702;2022-11-15T07:02:13;10.90;99.90
42333;DHT22;27984;51.476;5.702;2022-11-15T07:04:39;10.90;99.90
42333;DHT22;27984;51.476;5.702;2022-11-15T07:07:04;10.90;99.90
42333;DHT22;27984;51.476;5.702;2022-11-15T07:09:30;10.90;99.90
42333;DHT22;27984;51.476;5.702;2022-11-15T07:11:55;10.80;99.90
42333;DHT22;27984;51.476;5.702;2022-11-15T07:14:21;10.90;99.90
42333;DHT22;27984;51.476;5.702;2022-11-15T07:16:46;10.90;99.90
42333;DHT22;27984;51.476;5.702;2022-11-15T07:19:12;10.80;99.90
42333;DHT22;27984;51.476;5.702;2022-11-15T07:21:41;10.80;99.90
42333;DHT22;27984;51.476;5.702;2022-11-15T07:24:09;10.80;99.90
42333;DHT22;27984;51.476;5.702;2022-11-15T07:26:34;10.80;99.90
42333;DHT22;27984;51.476;5.702;2022-11-15T07:29:00;10.80;99.90
42333;DHT22;27984;51.476;5.702;2022-11-15T07:31:25;10.80;99.90
42333;DHT22;27984;51.476;5.702;2022-11-15T07:33:51;10.80;99.90
42333;DHT22;27984;51.476;5.702;2022-11-15T07:36:19;10.80;99.90
42333;DHT22;27984;51.476;5.702;2022-11-15T07:38:44;10.70;99.90
42333;DHT22;27984;51.476;5.702;2022-11-15T07:41:10;10.70;99.90
42333;DHT22;27984;51.476;5.702;2022-11-15T07:43:40;10.70;99.90
42333;DHT22;27984;51.476;5.702;2022-11-15T07:46:07;10.70;99.90
42333;DHT22;27984;51.476;5.702;2022-11-15T07:48:35;10.70;99.90
42333;DHT22;27984;51.476;5.702;2022-11-15T07:51:01;10.70;99.90
42333;DHT22;27984;51.476;5.702;2022-11-15T07:53:31;10.70;99.90
42333;DHT22;27984;51.476;5.702;2022-11-15T07:55:56;10.70;99.90
42333;DHT22;27984;51.476;5.702;2022-11-15T07:58:24;10.70;99.90
42333;DHT22;27984;51.476;5.702;2022-11-15T08:00:50;10.70;99.90
42333;DHT22;27984;51.476;5.702;2022-11-15T08:03:16;10.80;99.90
42333;DHT22;27984;51.476;5.702;2022-11-15T08:05:42;10.80;99.90
42333;DHT22;27984;51.476;5.702;2022-11-15T08:08:10;10.80;99.90
42333;DHT22;27984;51.476;5.702;2022-11-15T08:10:36;10.80;99.90
42333;DHT22;27984;51.476;5.702;2022-11-15T08:13:07;10.90;99.90
42333;DHT22;27984;51.476;5.702;2022-11-15T08:15:34;10.90;99.90
42333;DHT22;27984;51.476;5.702;2022-11-15T08:18:02;11.00;99.90
42333;DHT22;27984;51.476;5.702;2022-11-15T08:20:29;11.00;99.90
42333;DHT22;27984;51.476;5.702;2022-11-15T08:22:59;11.10;99.90
42333;DHT22;27984;51.476;5.702;2022-11-15T08:25:26;11.10;99.90
42333;DHT22;27984;51.476;5.702;2022-11-15T08:27:56;11.10;99.90
42333;DHT22;27984;51.476;5.702;2022-11-15T08:30:22;11.10;99.90
42333;DHT22;27984;51.476;5.702;2022-11-15T08:32:52;11.00;99.90
42333;DHT22;27984;51.476;5.702;2022-11-15T08:35:20;10.90;99.90
42333;DHT22;27984;51.476;5.702;2022-11-15T08:37:46;10.90;99.90
42333;DHT22;27984;51.476;5.702;2022-11-15T08:40:14;10.90;99.90
42333;DHT22;27984;51.476;5.702;2022-11-15T08:42:40;10.90;99.90
42333;DHT22;27984;51.476;5.702;2022-11-15T08:45:09;10.90;99.90
42333;DHT22;27984;51.476;5.702;2022-11-15T08:47:36;11.00;99.90
42333;DHT22;27984;51.476;5.702;2022-11-15T08:50:01;11.00;99.90
42333;DHT22;27984;51.476;5.702;2022-11-15T08:52:27;11.00;99.90
42333;DHT22;27984;51.476;5.702;2022-11-15T08:54:55;11.00;99.90
42333;DHT22;27984;51.476;5.702;2022-11-15T08:57:23;11.20;99.90
42333;DHT22;27984;51.476;5.702;2022-11-15T08:59:49;11.40;99.90
42333;DHT22;27984;51.476;5.702;2022-11-15T09:02:16;11.60;99.90
42333;DHT22;27984;51.476;5.702;2022-11-15T09:04:42;11.80;99.90
42333;DHT22;27984;51.476;5.702;2022-11-15T09:07:14;11.70;99.90
42333;DHT22;27984;51.476;5.702;2022-11-15T09:09:40;11.70;99.90
42333;DHT22;27984;51.476;5.702;2022-11-15T09:12:06;11.90;99.90
42333;DHT22;27984;51.476;5.702;2022-11-15T09:14:32;12.20;99.90
42333;DHT22;27984;51.476;5.702;2022-11-15T09:16:58;12.30;99.90
42333;DHT22;27984;51.476;5.702;2022-11-15T09:19:24;12.40;99.90
42333;DHT22;27984;51.476;5.702;2022-11-15T09:21:50;12.30;99.90
42333;DHT22;27984;51.476;5.702;2022-11-15T09:24:15;12.30;99.90
42333;DHT22;27984;51.476;5.702;2022-11-15T09:26:42;12.20;99.90
42333;DHT22;27984;51.476;5.702;2022-11-15T09:29:10;12.70;99.90
42333;DHT22;27984;51.476;5.702;2022-11-15T09:31:36;12.80;99.90
42333;DHT22;27984;51.476;5.702;2022-11-15T09:34:02;13.10;99.90
42333;DHT22;27984;51.476;5.702;2022-11-15T09:36:27;14.20;99.90
42333;DHT22;27984;51.476;5.702;2022-11-15T09:38:57;15.00;99.90
42333;DHT22;27984;51.476;5.702;2022-11-15T09:44:51;16.20;99.90
42333;DHT22;27984;51.476;5.702;2022-11-15T09:49:58;17.20;99.90
42333;DHT22;27984;51.476;5.702;2022-11-15T09:52:25;17.40;99.90
42333;DHT22;27984;51.476;5.702;2022-11-15T09:54:52;17.40;99.90
42333;DHT22;27984;51.476;5.702;2022-11-15T09:57:29;17.90;99.90
42333;DHT22;27984;51.476;5.702;2022-11-15T10:05:29;16.40;99.90
42333;DHT22;27984;51.476;5.702;2022-11-15T10:10:40;15.30;99.90
42333;DHT22;27984;51.476;5.702;2022-11-15T10:13:16;15.20;99.90
42333;DHT22;27984;51.476;5.702;2022-11-15T10:15:44;15.50;99.90
42333;DHT22;27984;51.476;5.702;2022-11-15T10:18:20;15.60;99.90
42333;DHT22;27984;51.476;5.702;2022-11-15T10:21:09;15.60;99.90
42333;DHT22;27984;51.476;5.702;2022-11-15T10:23:38;16.00;99.90
42333;DHT22;27984;51.476;5.702;2022-11-15T10:26:08;16.00;99.90
42333;DHT22;27984;51.476;5.702;2022-11-15T10:28:35;15.70;99.90
42333;DHT22;27984;51.476;5.702;2022-11-15T10:31:01;16.00;99.90
42333;DHT22;27984;51.476;5.702;2022-11-15T10:46:39;14.40;99.90
42333;DHT22;27984;51.476;5.702;2022-11-15T10:49:20;14.00;99.90
42333;DHT22;27984;51.476;5.702;2022-11-15T10:51:49;13.90;99.90
42333;DHT22;27984;51.476;5.702;2022-11-15T10:56:55;14.30;99.90
42333;DHT22;27984;51.476;5.702;2022-11-15T10:59:33;14.20;99.90
42333;DHT22;27984;51.476;5.702;2022-11-15T11:02:01;14.00;99.90
42333;DHT22;27984;51.476;5.702;2022-11-15T11:04:26;14.20;99.90
42333;DHT22;27984;51.476;5.702;2022-11-15T11:06:57;14.20;99.90
42333;DHT22;27984;51.476;5.702;2022-11-15T11:09:38;14.00;99.90
42333;DHT22;27984;51.476;5.702;2022-11-15T11:12:06;13.90;99.90
42333;DHT22;27984;51.476;5.702;2022-11-15T11:14:36;14.00;99.90
42333;DHT22;27984;51.476;5.702;2022-11-15T11:46:55;16.80;99.90
42333;DHT22;27984;51.476;5.702;2022-11-15T11:49:28;17.20;99.90
42333;DHT22;27984;51.476;5.702;2022-11-15T11:52:18;16.90;99.90
42333;DHT22;27984;51.476;5.702;2022-11-15T11:55:16;17.20;99.90
42333;DHT22;27984;51.476;5.702;2022-11-15T12:00:14;16.50;99.90
42333;DHT22;27984;51.476;5.702;2022-11-15T12:02:45;16.20;99.90
42333;DHT22;27984;51.476;5.702;2022-11-15T12:05:34;16.50;99.90
42333;DHT22;27984;51.476;5.702;2022-11-15T12:08:32;17.10;99.90
42333;DHT22;27984;51.476;5.702;2022-11-15T12:14:05;17.50;99.90
42333;DHT22;27984;51.476;5.702;2022-11-15T12:16:37;17.10;99.90
42333;DHT22;27984;51.476;5.702;2022-11-15T12:19:04;17.10;99.90
42333;DHT22;27984;51.476;5.702;2022-11-15T12:21:54;17.10;99.90
42333;DHT22;27984;51.476;5.702;2022-11-15T12:24:39;17.10;99.90
42333;DHT22;27984;51.476;5.702;2022-11-15T12:29:50;16.20;99.90
42333;DHT22;27984;51.476;5.702;2022-11-15T12:32:37;16.30;99.90
42333;DHT22;27984;51.476;5.702;2022-11-15T12:35:06;16.10;99.90
42333;DHT22;27984;51.476;5.702;2022-11-15T12:37:50;16.10;99.90
42333;DHT22;27984;51.476;5.702;2022-11-15T12:45:25;15.40;99.90
42333;DHT22;27984;51.476;5.702;2022-11-15T12:48:20;15.20;99.90
42333;DHT22;27984;51.476;5.702;2022-11-15T12:53:33;15.50;99.90
42333;DHT22;27984;51.476;5.702;2022-11-15T13:07:00;15.10;99.90
42333;DHT22;27984;51.476;5.702;2022-11-15T13:19:47;14.90;99.90
42333;DHT22;27984;51.476;5.702;2022-11-15T13:22:13;14.90;99.90
42333;DHT22;27984;51.476;5.702;2022-11-15T13:24:59;14.60;99.90
42333;DHT22;27984;51.476;5.702;2022-11-15T13:27:26;14.50;99.90
42333;DHT22;27984;51.476;5.702;2022-11-15T13:29:52;14.30;99.90
42333;DHT22;27984;51.476;5.702;2022-11-15T13:32:20;14.20;99.90
42333;DHT22;27984;51.476;5.702;2022-11-15T13:34:48;14.10;99.90
42333;DHT22;27984;51.476;5.702;2022-11-15T13:39:47;14.00;99.90
42333;DHT22;27984;51.476;5.702;2022-11-15T13:42:17;14.00;99.90
42333;DHT22;27984;51.476;5.702;2022-11-15T13:45:00;14.00;99.90
42333;DHT22;27984;51.476;5.702;2022-11-15T13:47:27;13.90;99.90
42333;DHT22;27984;51.476;5.702;2022-11-15T13:49:53;13.90;99.90
42333;DHT22;27984;51.476;5.702;2022-11-15T13:52:19;13.90;99.90
42333;DHT22;27984;51.476;5.702;2022-11-15T13:54:54;13.90;99.90
42333;DHT22;27984;51.476;5.702;2022-11-15T13:58:08;13.90;99.90
42333;DHT22;27984;51.476;5.702;2022-11-15T14:05:32;13.70;99.90
42333;DHT22;27984;51.476;5.702;2022-11-15T14:08:11;13.60;99.90
42333;DHT22;27984;51.476;5.702;2022-11-15T14:10:38;13.50;99.90
42333;DHT22;27984;51.476;5.702;2022-11-15T14:13:25;13.40;99.90
42333;DHT22;27984;51.476;5.702;2022-11-15T14:15:51;13.40;99.90
42333;DHT22;27984;51.476;5.702;2022-11-15T14:21:08;13.30;99.90
42333;DHT22;27984;51.476;5.702;2022-11-15T14:23:34;13.20;99.90
42333;DHT22;27984;51.476;5.702;2022-11-15T14:26:00;13.30;99.90
42333;DHT22;27984;51.476;5.702;2022-11-15T14:30:53;13.20;99.90
42333;DHT22;27984;51.476;5.702;2022-11-15T14:33:25;13.20;99.90
42333;DHT22;27984;51.476;5.702;2022-11-15T14:35:54;13.10;99.90
42333;DHT22;27984;51.476;5.702;2022-11-15T14:38:21;13.10;99.90
42333;DHT22;27984;51.476;5.702;2022-11-15T14:40:47;13.20;99.90
42333;DHT22;27984;51.476;5.702;2022-11-15T14:43:13;13.10;99.90
42333;DHT22;27984;51.476;5.702;2022-11-15T14:45:39;13.10;99.90
42333;DHT22;27984;51.476;5.702;2022-11-15T14:48:07;13.10;99.90
42333;DHT22;27984;51.476;5.702;2022-11-15T14:50:34;13.10;99.90
42333;DHT22;27984;51.476;5.702;2022-11-15T14:53:00;13.20;99.90
42333;DHT22;27984;51.476;5.702;2022-11-15T14:55:31;13.10;99.90
42333;DHT22;27984;51.476;5.702;2022-11-15T14:58:04;13.10;99.90
42333;DHT22;27984;51.476;5.702;2022-11-15T15:00:30;13.10;99.90
42333;DHT22;27984;51.476;5.702;2022-11-15T15:02:57;13.20;99.90
42333;DHT22;27984;51.476;5.702;2022-11-15T15:07:50;13.10;99.90
42333;DHT22;27984;51.476;5.702;2022-11-15T15:10:19;13.10;99.90
42333;DHT22;27984;51.476;5.702;2022-11-15T15:12:45;13.10;99.90
42333;DHT22;27984;51.476;5.702;2022-11-15T15:15:16;13.00;99.90
42333;DHT22;27984;51.476;5.702;2022-11-15T15:17:42;13.00;99.90
42333;DHT22;27984;51.476;5.702;2022-11-15T15:20:09;13.00;99.90
42333;DHT22;27984;51.476;5.702;2022-11-15T15:22:36;12.90;99.90
42333;DHT22;27984;51.476;5.702;2022-11-15T15:25:02;12.90;99.90
42333;DHT22;27984;51.476;5.702;2022-11-15T15:27:32;12.90;99.90
42333;DHT22;27984;51.476;5.702;2022-11-15T15:30:00;12.90;99.90
42333;DHT22;27984;51.476;5.702;2022-11-15T15:32:29;12.90;99.90
42333;DHT22;27984;51.476;5.702;2022-11-15T15:34:57;12.90;99.90
42333;DHT22;27984;51.476;5.702;2022-11-15T15:37:25;12.80;99.90
42333;DHT22;27984;51.476;5.702;2022-11-15T15:39:56;12.70;99.90
42333;DHT22;27984;51.476;5.702;2022-11-15T15:42:22;12.70;99.90
42333;DHT22;27984;51.476;5.702;2022-11-15T15:44:49;12.70;99.90
42333;DHT22;27984;51.476;5.702;2022-11-15T15:47:18;12.70;99.90
42333;DHT22;27984;51.476;5.702;2022-11-15T15:49:44;12.70;99.90
42333;DHT22;27984;51.476;5.702;2022-11-15T15:52:10;12.80;99.90
42333;DHT22;27984;51.476;5.702;2022-11-15T15:54:37;12.70;99.90
42333;DHT22;27984;51.476;5.702;2022-11-15T15:57:02;12.70;99.90
42333;DHT22;27984;51.476;5.702;2022-11-15T15:59:28;12.70;99.90
42333;DHT22;27984;51.476;5.702;2022-11-15T16:01:54;12.70;99.90
42333;DHT22;27984;51.476;5.702;2022-11-15T16:04:19;12.60;99.90
42333;DHT22;27984;51.476;5.702;2022-11-15T16:06:45;12.60;99.90
42333;DHT22;27984;51.476;5.702;2022-11-15T16:09:13;12.60;99.90
42333;DHT22;27984;51.476;5.702;2022-11-15T16:11:40;12.60;99.90
42333;DHT22;27984;51.476;5.702;2022-11-15T16:14:07;12.60;99.90
42333;DHT22;27984;51.476;5.702;2022-11-15T16:16:34;12.60;99.90
42333;DHT22;27984;51.476;5.702;2022-11-15T16:19:00;12.60;99.90
42333;DHT22;27984;51.476;5.702;2022-11-15T16:21:26;12.60;99.90
42333;DHT22;27984;51.476;5.702;2022-11-15T16:23:52;12.60;99.90
42333;DHT22;27984;51.476;5.702;2022-11-15T16:26:22;12.60;99.90
42333;DHT22;27984;51.476;5.702;2022-11-15T16:28:48;12.60;99.90
42333;DHT22;27984;51.476;5.702;2022-11-15T16:31:14;12.60;99.90
42333;DHT22;27984;51.476;5.702;2022-11-15T16:33:43;12.60;99.90
42333;DHT22;27984;51.476;5.702;2022-11-15T16:36:23;12.40;99.90
42333;DHT22;27984;51.476;5.702;2022-11-15T16:38:49;12.30;99.90
42333;DHT22;27984;51.476;5.702;2022-11-15T16:41:18;12.20;99.90
42333;DHT22;27984;51.476;5.702;2022-11-15T16:43:45;12.00;99.90
42333;DHT22;27984;51.476;5.702;2022-11-15T16:46:24;12.00;99.90
42333;DHT22;27984;51.476;5.702;2022-11-15T16:48:50;12.00;99.90
42333;DHT22;27984;51.476;5.702;2022-11-15T16:51:19;11.90;99.90
42333;DHT22;27984;51.476;5.702;2022-11-15T16:53:48;11.80;99.90
42333;DHT22;27984;51.476;5.702;2022-11-15T16:56:19;11.70;99.90
42333;DHT22;27984;51.476;5.702;2022-11-15T16:58:45;11.50;99.90
42333;DHT22;27984;51.476;5.702;2022-11-15T17:01:22;11.50;99.90
42333;DHT22;27984;51.476;5.702;2022-11-15T17:03:48;11.50;99.90
42333;DHT22;27984;51.476;5.702;2022-11-15T17:06:14;11.40;99.90
42333;DHT22;27984;51.476;5.702;2022-11-15T17:08:40;11.40;99.90
42333;DHT22;27984;51.476;5.702;2022-11-15T17:11:07;11.30;99.90
42333;DHT22;27984;51.476;5.702;2022-11-15T17:13:35;11.30;99.90
42333;DHT22;27984;51.476;5.702;2022-11-15T17:16:08;11.30;99.90
42333;DHT22;27984;51.476;5.702;2022-11-15T17:18:35;11.30;99.90
42333;DHT22;27984;51.476;5.702;2022-11-15T17:21:13;11.30;99.90
42333;DHT22;27984;51.476;5.702;2022-11-15T17:23:42;11.30;99.90
42333;DHT22;27984;51.476;5.702;2022-11-15T17:26:09;11.20;99.90
42333;DHT22;27984;51.476;5.702;2022-11-15T17:28:41;11.20;99.90
42333;DHT22;27984;51.476;5.702;2022-11-15T17:31:09;11.20;99.90
42333;DHT22;27984;51.476;5.702;2022-11-15T17:33:35;11.20;99.90
42333;DHT22;27984;51.476;5.702;2022-11-15T17:36:03;11.20;99.90
42333;DHT22;27984;51.476;5.702;2022-11-15T17:38:31;11.20;99.90
42333;DHT22;27984;51.476;5.702;2022-11-15T17:41:06;11.20;99.90
42333;DHT22;27984;51.476;5.702;2022-11-15T17:43:33;11.20;99.90
42333;DHT22;27984;51.476;5.702;2022-11-15T17:46:03;11.20;99.90
42333;DHT22;27984;51.476;5.702;2022-11-15T17:48:29;11.10;99.90
42333;DHT22;27984;51.476;5.702;2022-11-15T17:51:00;11.20;99.90
42333;DHT22;27984;51.476;5.702;2022-11-15T17:53:27;11.20;99.90
42333;DHT22;27984;51.476;5.702;2022-11-15T17:56:07;11.10;99.90
42333;DHT22;27984;51.476;5.702;2022-11-15T17:58:35;11.10;99.90
42333;DHT22;27984;51.476;5.702;2022-11-15T18:03:35;11.10;99.90
42333;DHT22;27984;51.476;5.702;2022-11-15T18:06:03;11.10;99.90
42333;DHT22;27984;51.476;5.702;2022-11-15T18:08:29;11.10;99.90
42333;DHT22;27984;51.476;5.702;2022-11-15T18:14:01;11.10;99.90
42333;DHT22;27984;51.476;5.702;2022-11-15T18:16:29;11.10;99.90